Time;durP1;ratioP1;P1;durP2;ratioP2;P2;SDS_P1;SDS_P2;PMS_P1;PMS_P2;Temp;Humidity;BMP_temperature;BMP_pressure;BME280_temperature;BME280_humidity;BME280_pressure;Samples;Min_cycle;Max_cycle;Signal;HPM_P1;HPM_P2
2021/12/27 00:01:33;;;;;;;7.40;4.45;;;-3274.60;77.80;;;;;;5089785;28;20036;-46
2021/12/27 00:04:00;;;;;;;11.80;5.90;;;-3274.60;78.30;;;;;;5081105;28;20036;-48
2021/12/27 00:06:28;;;;;;;8.82;5.78;;;-3274.60;78.70;;;;;;5100258;28;20106;-47
2021/12/27 00:08:57;;;;;;;8.55;6.35;;;-3274.60;78.10;;;;;;5080886;28;20603;-47
2021/12/27 00:11:24;;;;;;;8.88;6.10;;;-3274.60;78.20;;;;;;5086588;28;20036;-46
2021/12/27 00:13:51;;;;;;;12.48;5.78;;;-3274.60;78.30;;;;;;5115563;28;20107;-47
2021/12/27 00:16:18;;;;;;;9.75;5.40;;;-3274.60;77.70;;;;;;5127542;27;20031;-52
2021/12/27 00:18:44;;;;;;;8.90;5.00;;;-3274.60;78.10;;;;;;5135970;27;20027;-47
2021/12/27 00:21:11;;;;;;;13.52;7.05;;;-3274.60;78.00;;;;;;5108912;28;20346;-48
2021/12/27 00:23:37;;;;;;;9.45;5.32;;;-3274.60;77.20;;;;;;5113667;28;20032;-48
2021/12/27 00:26:05;;;;;;;9.32;5.28;;;-3274.60;77.10;;;;;;5091533;28;20024;-45
2021/12/27 00:28:33;;;;;;;10.90;6.05;;;-3274.60;77.70;;;;;;5114093;28;20046;-45
2021/12/27 00:31:02;;;;;;;11.17;6.27;;;-3274.70;78.30;;;;;;5109806;28;20020;-46
2021/12/27 00:33:28;;;;;;;12.15;6.97;;;-3274.70;79.00;;;;;;5105800;28;20304;-47
2021/12/27 00:35:56;;;;;;;11.00;6.30;;;-3274.70;79.40;;;;;;5106418;28;20034;-45
2021/12/27 00:38:23;;;;;;;8.85;5.82;;;-3274.70;79.80;;;;;;5095149;28;20043;-46
2021/12/27 00:40:50;;;;;;;10.18;6.05;;;-3274.80;80.30;;;;;;5126927;27;20435;-47
2021/12/27 00:43:20;;;;;;;9.45;5.97;;;-3274.70;80.00;;;;;;5104931;27;20052;-45
2021/12/27 00:45:46;;;;;;;11.93;6.53;;;-3274.70;79.80;;;;;;5091961;28;20043;-44
2021/12/27 00:48:15;;;;;;;9.88;5.95;;;-3274.60;79.80;;;;;;5114757;28;20040;-46
2021/12/27 00:50:43;;;;;;;9.65;5.82;;;-3274.60;79.60;;;;;;5114333;28;20015;-50
2021/12/27 00:53:10;;;;;;;12.18;6.80;;;-3274.50;79.00;;;;;;5088706;28;20059;-46
2021/12/27 00:55:37;;;;;;;12.07;6.55;;;-3274.50;78.80;;;;;;5093843;28;20028;-50
2021/12/27 00:58:07;;;;;;;12.40;5.95;;;-3274.50;78.90;;;;;;5101930;28;20027;-44
2021/12/27 01:00:33;;;;;;;9.32;6.25;;;-3274.50;79.10;;;;;;5101769;28;20088;-46
2021/12/27 01:03:00;;;;;;;8.10;4.72;;;-3274.40;78.80;;;;;;5113152;28;20453;-44
2021/12/27 01:05:27;;;;;;;9.40;6.13;;;-3274.50;79.00;;;;;;5113549;28;20070;-47
2021/12/27 01:07:55;;;;;;;10.73;6.63;;;-3274.50;79.40;;;;;;5103788;28;20464;-46
2021/12/27 01:13:21;;;;;;;9.52;5.65;;;-3274.60;79.60;;;;;;5102708;28;20062;-50
2021/12/27 01:16:10;;;;;;;9.35;5.47;;;-3274.60;79.80;;;;;;5093438;27;20451;-45
2021/12/27 01:18:46;;;;;;;11.18;6.57;;;-3274.70;80.10;;;;;;5116538;27;20035;-51
2021/12/27 01:21:17;;;;;;;11.15;6.30;;;-3274.70;79.90;;;;;;5113940;28;20031;-47
2021/12/27 01:23:44;;;;;;;10.35;6.97;;;-3274.80;80.30;;;;;;5099752;28;20028;-47
2021/12/27 01:26:11;;;;;;;11.98;6.30;;;-3274.80;80.00;;;;;;5093631;28;20031;-46
2021/12/27 01:28:40;;;;;;;10.20;6.15;;;-3274.80;79.60;;;;;;5088465;28;20394;-44
2021/12/27 01:31:10;;;;;;;9.32;5.50;;;-3274.80;79.70;;;;;;5114014;28;20524;-48
2021/12/27 01:33:38;;;;;;;10.13;5.80;;;-3274.80;79.30;;;;;;5095487;28;20123;-45
2021/12/27 01:36:06;;;;;;;9.98;6.53;;;-3274.90;79.60;;;;;;5088992;28;20110;-47
2021/12/27 01:38:38;;;;;;;10.32;6.60;;;-3274.90;79.00;;;;;;5090226;28;20114;-44
2021/12/27 01:41:07;;;;;;;9.30;5.85;;;-3274.90;78.80;;;;;;5112110;27;20051;-48
2021/12/27 01:43:36;;;;;;;9.27;5.10;;;-3274.90;78.60;;;;;;5113050;28;20047;-46
2021/12/27 01:46:23;;;;;;;11.02;6.82;;;-3274.90;78.50;;;;;;5113806;28;20111;-46
2021/12/27 01:48:58;;;;;;;9.48;5.45;;;-3274.90;78.50;;;;;;5098523;28;20032;-46
2021/12/27 01:51:28;;;;;;;8.15;5.10;;;-3274.90;78.70;;;;;;5093206;28;20099;-45
2021/12/27 01:53:57;;;;;;;10.05;5.88;;;-3275.00;78.30;;;;;;5108386;28;20062;-47
2021/12/27 01:56:25;;;;;;;9.80;5.72;;;-3275.10;77.70;;;;;;5113714;28;20498;-47
2021/12/27 01:58:58;;;;;;;8.85;5.07;;;-3275.00;78.20;;;;;;5111883;28;20395;-46
2021/12/27 02:01:26;;;;;;;9.85;5.72;;;-3275.00;78.00;;;;;;5096534;28;20032;-44
2021/12/27 02:03:54;;;;;;;10.65;5.70;;;-3275.00;77.80;;;;;;5093861;28;20449;-47
2021/12/27 02:06:27;;;;;;;8.57;5.72;;;-3275.00;78.00;;;;;;5080670;28;20081;-48
2021/12/27 02:08:57;;;;;;;10.65;5.80;;;-3275.10;78.40;;;;;;5109872;28;20031;-45
2021/12/27 02:11:24;;;;;;;;;;;-3275.10;77.90;;;;;;5104721;28;20024;-45
2021/12/27 02:13:51;;;;;;;8.57;5.85;;;-3275.10;78.20;;;;;;5079739;28;19912;-44
2021/12/27 02:16:21;;;;;;;11.60;6.80;;;-3275.10;78.00;;;;;;5107958;28;20111;-47
2021/12/27 02:18:48;;;;;;;12.13;5.90;;;-3275.10;78.20;;;;;;5118454;28;20044;-48
2021/12/27 02:21:15;;;;;;;9.35;5.55;;;-3275.20;78.30;;;;;;5113687;28;20126;-47
2021/12/27 02:23:43;;;;;;;11.25;5.65;;;-3275.20;77.90;;;;;;5099530;28;20357;-48
2021/12/27 02:26:10;;;;;;;8.80;5.60;;;-3275.20;78.20;;;;;;5093276;28;20028;-44
2021/12/27 02:28:37;;;;;;;8.82;5.22;;;-3275.20;78.40;;;;;;5100193;28;20024;-47
2021/12/27 02:31:08;;;;;;;8.55;5.70;;;-3275.10;78.10;;;;;;5075845;28;20040;-46
2021/12/27 02:33:39;;;;;;;9.95;5.18;;;-3275.20;78.40;;;;;;5087393;28;20070;-48
2021/12/27 02:36:08;;;;;;;8.68;5.50;;;-3275.20;78.70;;;;;;5087383;28;20123;-46
2021/12/27 02:38:39;;;;;;;7.68;5.30;;;-3275.20;78.50;;;;;;5097443;28;20060;-48
2021/12/27 02:41:05;;;;;;;10.30;5.78;;;-3275.20;78.30;;;;;;5116545;28;20024;-47
2021/12/27 02:43:33;;;;;;;9.90;5.72;;;-3275.20;78.20;;;;;;5113271;28;20043;-46
2021/12/27 02:46:03;;;;;;;8.55;4.97;;;-3275.20;78.20;;;;;;5095396;28;20060;-47
2021/12/27 02:48:33;;;;;;;11.00;5.97;;;-3275.20;78.20;;;;;;5105968;28;20028;-49
2021/12/27 02:51:01;;;;;;;9.25;5.28;;;-3275.20;78.50;;;;;;5092561;28;20016;-44
2021/12/27 02:53:28;;;;;;;8.57;5.88;;;-3275.20;78.40;;;;;;5092812;28;20404;-48
2021/12/27 02:55:57;;;;;;;9.80;5.68;;;-3275.20;78.50;;;;;;5092327;28;20037;-45
2021/12/27 02:58:25;;;;;;;11.13;5.60;;;-3275.10;78.60;;;;;;5103218;28;20032;-45
2021/12/27 03:00:58;;;;;;;8.88;5.15;;;-3275.10;78.40;;;;;;5099563;28;20032;-45
2021/12/27 03:03:25;;;;;;;12.85;6.90;;;-3275.10;78.70;;;;;;5108855;28;20027;-45
2021/12/27 03:05:52;;;;;;;9.55;5.63;;;-3275.10;78.90;;;;;;5093100;28;20043;-46
2021/12/27 03:08:23;;;;;;;10.68;4.93;;;-3275.10;79.00;;;;;;5086898;28;20386;-44
2021/12/27 03:10:52;;;;;;;9.85;5.45;;;-3275.10;79.10;;;;;;5094823;28;20020;-47
2021/12/27 03:13:22;;;;;;;9.30;5.43;;;-3275.20;79.50;;;;;;5076229;28;20624;-46
2021/12/27 03:15:58;;;;;;;12.15;6.63;;;-3275.30;79.50;;;;;;5106159;27;20050;-44
2021/12/27 03:18:24;;;;;;;10.20;5.20;;;-3275.30;79.30;;;;;;5118638;27;20035;-46
2021/12/27 03:20:52;;;;;;;12.38;6.47;;;-3275.30;79.20;;;;;;5078204;28;20055;-47
2021/12/27 03:23:19;;;;;;;9.85;6.82;;;-3275.20;79.50;;;;;;5106001;28;20084;-48
2021/12/27 03:25:47;;;;;;;10.10;6.47;;;-3275.20;79.70;;;;;;5116297;28;20090;-47
2021/12/27 03:28:13;;;;;;;8.27;4.75;;;-3275.20;79.70;;;;;;5106256;28;20173;-47
2021/12/27 03:30:41;;;;;;;9.82;5.40;;;-3275.30;79.70;;;;;;5095577;28;20153;-47
2021/12/27 03:33:09;;;;;;;10.05;5.85;;;-3275.30;79.80;;;;;;5104405;28;20024;-48
2021/12/27 03:35:38;;;;;;;9.73;6.13;;;-3275.30;80.00;;;;;;5107654;28;20027;-47
2021/12/27 03:38:11;;;;;;;12.13;6.07;;;-3275.30;80.00;;;;;;5102874;28;20069;-46
2021/12/27 03:40:39;;;;;;;11.15;6.13;;;-3275.30;79.90;;;;;;5098772;28;20051;-47
2021/12/27 03:43:07;;;;;;;8.73;5.82;;;-3275.30;80.00;;;;;;5107267;28;20048;-47
2021/12/27 03:45:36;;;;;;;9.52;5.47;;;-3275.30;80.20;;;;;;5101874;28;20042;-46
2021/12/27 03:48:03;;;;;;;9.90;5.55;;;-3275.20;79.80;;;;;;5115624;28;20032;-49
2021/12/27 03:50:32;;;;;;;10.38;6.55;;;-3275.20;79.90;;;;;;5112096;28;20346;-47
2021/12/27 03:52:59;;;;;;;;;;;-3275.30;79.90;;;;;;5107678;28;20031;-51
2021/12/27 03:55:26;;;;;;;10.20;5.90;;;-3275.20;80.00;;;;;;5099040;28;20052;-49
2021/12/27 03:57:56;;;;;;;10.30;6.60;;;-3275.20;80.00;;;;;;5089952;28;20637;-51
2021/12/27 04:02:55;;;;;;;10.70;5.93;;;-3275.20;80.30;;;;;;5115661;28;20496;-46
2021/12/27 04:05:23;;;;;;;11.23;5.93;;;-3275.30;80.20;;;;;;5113097;28;20745;-46
2021/12/27 04:07:59;;;;;;;10.73;6.85;;;-3275.30;80.10;;;;;;5106241;28;20046;-45
2021/12/27 04:10:28;;;;;;;9.00;5.35;;;-3275.30;79.90;;;;;;5115277;28;20078;-45
2021/12/27 04:12:58;;;;;;;10.10;5.50;;;-3275.30;80.00;;;;;;5086386;28;20043;-48
2021/12/27 04:15:29;;;;;;;11.48;7.20;;;-3275.30;80.10;;;;;;5104300;27;20095;-47
2021/12/27 04:17:56;;;;;;;13.00;6.97;;;-3275.40;80.00;;;;;;5115805;27;20380;-46
2021/12/27 04:20:23;;;;;;;11.55;7.15;;;-3275.40;79.90;;;;;;5094586;28;20111;-48
2021/12/27 04:22:50;;;;;;;14.80;7.30;;;-3275.40;79.70;;;;;;5102458;28;20516;-48
2021/12/27 04:25:19;;;;;;;12.25;7.63;;;-3275.50;79.60;;;;;;5114358;28;20114;-47
2021/12/27 04:27:49;;;;;;;12.00;6.60;;;-3275.40;79.60;;;;;;5107092;28;20046;-46
2021/12/27 04:30:17;;;;;;;11.80;6.68;;;-3275.50;79.50;;;;;;5103753;28;20040;-46
2021/12/27 04:32:45;;;;;;;10.98;6.35;;;-3275.50;79.60;;;;;;5108859;28;20035;-44
2021/12/27 04:35:12;;;;;;;10.07;6.25;;;-3275.50;79.70;;;;;;5097179;28;20024;-46
2021/12/27 04:37:42;;;;;;;9.18;6.45;;;-3275.50;79.90;;;;;;5102682;28;20457;-48
2021/12/27 04:40:11;;;;;;;9.95;6.25;;;-3275.50;79.90;;;;;;5118445;27;20072;-48
2021/12/27 04:42:40;;;;;;;11.00;6.43;;;-3275.50;79.60;;;;;;5118524;27;20345;-51
2021/12/27 04:45:08;;;;;;;11.13;6.20;;;-3275.50;79.70;;;;;;5095244;28;20066;-48
2021/12/27 04:47:34;;;;;;;12.10;7.65;;;-3275.50;79.80;;;;;;5110519;28;20027;-48
2021/12/27 04:50:01;;;;;;;12.15;7.22;;;-3275.50;79.70;;;;;;5094617;28;20035;-47
2021/12/27 04:52:28;;;;;;;10.48;6.10;;;-3275.50;79.60;;;;;;5094488;28;20017;-45
2021/12/27 04:54:55;;;;;;;10.65;7.15;;;-3275.50;79.70;;;;;;5094167;28;20031;-47
2021/12/27 04:57:22;;;;;;;13.48;6.80;;;-3275.60;79.70;;;;;;5097945;28;20036;-44
2021/12/27 04:59:49;;;;;;;13.20;6.72;;;-3275.50;79.60;;;;;;5112792;28;20034;-49
2021/12/27 05:02:16;;;;;;;12.45;6.85;;;-3275.50;79.80;;;;;;5106272;28;20399;-46
2021/12/27 05:04:41;;;;;;;13.63;7.57;;;-3275.50;79.80;;;;;;5098585;28;20071;-45
2021/12/27 05:07:08;;;;;;;12.60;7.25;;;-3275.50;79.40;;;;;;5105140;28;20471;-44
2021/12/27 05:09:35;;;;;;;13.10;7.80;;;-3275.50;79.70;;;;;;5107815;28;20085;-45
2021/12/27 05:12:05;;;;;;;15.02;7.35;;;-3275.50;79.60;;;;;;5111963;28;20031;-47
2021/12/27 05:14:31;;;;;;;11.73;6.93;;;-3275.50;79.50;;;;;;5113234;28;20108;-45
2021/12/27 05:16:56;;;;;;;12.80;7.10;;;-3275.50;79.40;;;;;;5110691;28;20460;-44
2021/12/27 05:19:23;;;;;;;15.10;7.85;;;-3275.50;79.50;;;;;;5095421;28;20042;-45
2021/12/27 05:21:49;;;;;;;12.30;7.47;;;-3275.50;79.70;;;;;;5095459;28;20034;-47
2021/12/27 05:24:16;;;;;;;10.48;6.72;;;-3275.50;79.80;;;;;;5095050;28;20032;-47
2021/12/27 05:26:45;;;;;;;11.98;8.05;;;-3275.60;79.80;;;;;;5085408;28;20039;-44
2021/12/27 05:29:12;;;;;;;12.10;8.10;;;-3275.60;79.80;;;;;;5096032;28;20058;-44
2021/12/27 05:31:38;;;;;;;15.32;9.23;;;-3275.70;79.60;;;;;;5104705;28;20039;-51
2021/12/27 05:34:10;;;;;;;14.05;8.40;;;-3275.70;79.70;;;;;;5092411;28;20066;-44
2021/12/27 05:36:37;;;;;;;10.20;7.85;;;-3275.70;80.30;;;;;;5102422;28;20468;-45
2021/12/27 05:39:04;;;;;;;14.10;8.25;;;-3275.60;80.10;;;;;;5096088;28;20027;-45
2021/12/27 05:41:30;;;;;;;13.40;8.18;;;-3275.70;80.20;;;;;;5112763;27;20074;-46
2021/12/27 05:43:58;;;;;;;12.80;8.20;;;-3275.60;80.30;;;;;;5095758;28;20425;-45
2021/12/27 05:46:25;;;;;;;11.60;8.45;;;-3275.70;80.50;;;;;;5113128;28;20028;-43
2021/12/27 05:48:55;;;;;;;13.63;8.32;;;-3275.70;80.90;;;;;;5063673;28;20071;-48
2021/12/27 05:51:22;;;;;;;15.63;9.57;;;-3275.60;80.30;;;;;;5105406;28;20169;-46
2021/12/27 05:53:55;;;;;;;15.85;9.38;;;-3275.70;80.10;;;;;;5098652;28;20498;-48
2021/12/27 05:56:22;;;;;;;17.38;9.55;;;-3275.70;80.20;;;;;;5107182;28;20086;-46
2021/12/27 05:58:48;;;;;;;18.17;11.63;;;-3275.70;80.10;;;;;;5113491;28;20093;-48
2021/12/27 06:01:16;;;;;;;14.50;9.20;;;-3275.70;80.10;;;;;;5111522;28;20024;-48
2021/12/27 06:03:42;;;;;;;13.73;8.93;;;-3275.80;79.80;;;;;;5099372;28;20122;-50
2021/12/27 06:06:11;;;;;;;14.73;8.88;;;-3275.70;80.10;;;;;;5104959;28;20086;-49
2021/12/27 06:08:40;;;;;;;16.42;9.73;;;-3275.70;80.00;;;;;;5098764;28;20081;-45
2021/12/27 06:11:07;;;;;;;15.55;8.75;;;-3275.70;80.10;;;;;;5105185;28;20337;-45
2021/12/27 06:13:34;;;;;;;15.48;8.63;;;-3275.70;80.10;;;;;;5112013;28;20485;-47
2021/12/27 06:16:01;;;;;;;11.75;8.32;;;-3275.70;80.10;;;;;;5111719;28;20357;-46
2021/12/27 06:18:26;;;;;;;11.77;8.13;;;-3275.70;80.30;;;;;;5108413;28;20039;-46
2021/12/27 06:20:53;;;;;;;18.67;9.70;;;-3275.70;80.30;;;;;;5091680;28;20032;-48
2021/12/27 06:23:20;;;;;;;16.83;8.68;;;-3275.70;80.40;;;;;;5091761;28;20028;-46
2021/12/27 06:25:47;;;;;;;14.40;8.57;;;-3275.70;80.30;;;;;;5112169;28;20356;-46
2021/12/27 06:28:17;;;;;;;14.20;8.88;;;-3275.70;80.20;;;;;;5094547;28;20433;-45
2021/12/27 06:30:48;;;;;;;13.48;9.05;;;-3275.70;80.10;;;;;;5093168;28;20161;-45
2021/12/27 06:33:16;;;;;;;14.00;8.85;;;-3275.70;80.20;;;;;;5084777;28;20329;-49
2021/12/27 06:35:43;;;;;;;15.82;9.80;;;-3275.60;80.40;;;;;;5110308;28;20107;-49
2021/12/27 06:38:10;;;;;;;13.30;9.00;;;-3275.60;80.40;;;;;;5077214;28;20077;-45
2021/12/27 06:40:37;;;;;;;16.17;9.85;;;-3275.70;80.20;;;;;;5096230;28;20113;-47
2021/12/27 06:43:04;;;;;;;14.02;9.15;;;-3275.70;80.30;;;;;;5102703;28;20043;-46
2021/12/27 06:45:30;;;;;;;14.45;9.55;;;-3275.70;80.40;;;;;;5112071;28;20028;-47
2021/12/27 06:47:56;;;;;;;15.57;9.80;;;-3275.70;80.40;;;;;;5111034;28;20057;-45
2021/12/27 06:50:23;;;;;;;15.07;10.43;;;-3275.70;80.50;;;;;;5084325;28;20036;-45
2021/12/27 06:52:51;;;;;;;15.50;9.57;;;-3275.70;80.60;;;;;;5103716;28;20450;-50
2021/12/27 06:55:18;;;;;;;16.08;10.10;;;-3275.70;80.70;;;;;;5108542;28;20462;-48
2021/12/27 06:57:45;;;;;;;16.27;8.77;;;-3275.70;80.70;;;;;;5089450;28;20035;-48
2021/12/27 07:00:13;;;;;;;15.32;8.77;;;-3275.70;80.50;;;;;;5103393;28;20038;-46
2021/12/27 07:02:41;;;;;;;14.38;9.95;;;-3275.70;80.50;;;;;;5086540;28;20031;-45
2021/12/27 07:05:09;;;;;;;15.63;10.07;;;-3275.70;80.70;;;;;;5107373;28;20054;-44
2021/12/27 07:07:36;;;;;;;14.98;9.27;;;-3275.60;80.60;;;;;;5106098;28;20024;-47
2021/12/27 07:10:05;;;;;;;13.55;9.75;;;-3275.60;80.50;;;;;;5097173;28;20047;-45
2021/12/27 07:12:33;;;;;;;19.23;11.30;;;-3275.60;80.40;;;;;;5094949;28;20054;-45
2021/12/27 07:15:02;;;;;;;19.58;9.95;;;-3275.60;80.60;;;;;;5115490;28;20024;-46
2021/12/27 07:17:29;;;;;;;17.55;9.95;;;-3275.60;80.60;;;;;;5112313;28;20484;-45
2021/12/27 07:19:57;;;;;;;16.85;10.38;;;-3275.60;80.50;;;;;;5110954;28;20114;-50
2021/12/27 07:22:25;;;;;;;19.13;10.98;;;-3275.70;80.50;;;;;;5112862;28;20110;-47
2021/12/27 07:24:52;;;;;;;17.00;10.55;;;-3275.70;80.60;;;;;;5097575;28;20027;-45
2021/12/27 07:27:17;;;;;;;19.20;10.07;;;-3275.60;80.70;;;;;;5113882;28;20470;-45
2021/12/27 07:29:43;;;;;;;16.83;11.85;;;-3275.60;80.80;;;;;;5097319;28;20051;-47
2021/12/27 07:32:10;;;;;;;17.27;11.00;;;-3275.60;81.00;;;;;;5107028;28;20036;-45
2021/12/27 07:34:38;;;;;;;17.58;10.15;;;-3275.60;81.00;;;;;;5095252;28;20417;-47
2021/12/27 07:37:06;;;;;;;15.43;10.48;;;-3275.60;80.90;;;;;;5081840;28;20478;-46
2021/12/27 07:39:36;;;;;;;20.20;11.13;;;-3275.60;81.00;;;;;;5106973;28;20031;-50
2021/12/27 07:42:06;;;;;;;17.60;11.40;;;-3275.60;80.90;;;;;;5114609;28;20055;-46
2021/12/27 07:44:33;;;;;;;17.63;11.38;;;-3275.60;81.10;;;;;;5108836;28;20092;-45
2021/12/27 07:47:00;;;;;;;16.77;10.13;;;-3275.60;80.70;;;;;;5094830;28;20493;-45
2021/12/27 07:49:27;;;;;;;15.82;11.15;;;-3275.60;80.80;;;;;;5095189;28;20029;-46
2021/12/27 07:51:54;;;;;;;17.42;11.05;;;-3275.70;81.00;;;;;;5103486;28;20032;-48
2021/12/27 07:54:20;;;;;;;22.48;11.00;;;-3275.70;81.00;;;;;;5111704;28;20139;-47
2021/12/27 07:56:47;;;;;;;16.60;9.93;;;-3275.70;80.80;;;;;;5114409;28;20042;-47
2021/12/27 07:59:14;;;;;;;20.95;11.32;;;-3275.70;80.70;;;;;;5085142;28;20036;-50
2021/12/27 08:01:41;;;;;;;18.98;10.85;;;-3275.60;80.70;;;;;;5094923;28;20028;-45
2021/12/27 08:04:12;;;;;;;15.98;10.80;;;-3275.60;80.70;;;;;;5108177;28;20032;-46
2021/12/27 08:06:39;;;;;;;16.35;11.40;;;-3275.60;81.00;;;;;;5106611;27;20135;-47
2021/12/27 08:09:06;;;;;;;21.33;12.07;;;-3275.60;80.80;;;;;;5095445;27;20381;-47
2021/12/27 08:11:36;;;;;;;19.17;11.05;;;-3275.60;80.90;;;;;;5115796;27;20023;-47
2021/12/27 08:14:03;;;;;;;16.27;10.55;;;-3275.60;80.80;;;;;;5113483;28;20052;-45
2021/12/27 08:16:29;;;;;;;19.48;11.13;;;-3275.60;81.00;;;;;;5094503;28;20475;-47
2021/12/27 08:18:58;;;;;;;19.83;11.98;;;-3275.60;81.00;;;;;;5110309;28;20055;-44
2021/12/27 08:21:26;;;;;;;17.70;11.30;;;-3275.60;81.10;;;;;;5113078;28;20063;-46
2021/12/27 08:23:53;;;;;;;20.63;12.25;;;-3275.60;81.10;;;;;;5095216;28;20044;-47
2021/12/27 08:26:23;;;;;;;17.13;11.65;;;-3275.60;81.20;;;;;;5109866;28;20032;-44
2021/12/27 08:28:51;;;;;;;;;;;-3275.60;81.30;;;;;;5112819;28;20149;-47
2021/12/27 08:31:18;;;;;;;24.38;12.27;;;-3275.60;81.70;;;;;;5113719;28;19903;-45
2021/12/27 08:33:45;;;;;;;18.45;11.93;;;-3275.60;81.70;;;;;;5112900;28;20031;-48
2021/12/27 08:36:12;;;;;;;18.35;12.27;;;-3275.60;82.10;;;;;;5112471;28;20019;-45
2021/12/27 08:38:45;;;;;;;19.02;12.70;;;-3275.60;82.00;;;;;;5108938;28;20376;-46
2021/12/27 08:41:12;;;;;;;17.90;12.32;;;-3275.60;82.00;;;;;;5112224;28;20104;-46
2021/12/27 08:43:39;;;;;;;19.92;12.05;;;-3275.60;82.20;;;;;;5091685;28;20054;-48
2021/12/27 08:46:07;;;;;;;23.90;12.85;;;-3275.70;82.10;;;;;;5112991;28;20108;-48
2021/12/27 08:48:35;;;;;;;22.05;13.00;;;-3275.70;82.00;;;;;;5092386;28;20096;-48
2021/12/27 08:51:03;;;;;;;20.95;12.68;;;-3275.80;82.00;;;;;;5107283;28;20418;-47
2021/12/27 08:53:30;;;;;;;22.42;13.95;;;-3275.80;81.90;;;;;;5112594;28;20039;-45
2021/12/27 08:56:02;;;;;;;21.88;13.70;;;-3275.80;82.10;;;;;;5112566;28;20393;-46
2021/12/27 08:58:28;;;;;;;24.73;14.32;;;-3275.70;82.20;;;;;;5113346;28;20028;-48
2021/12/27 09:00:58;;;;;;;22.80;13.30;;;-3275.70;82.40;;;;;;5112001;28;20047;-47
2021/12/27 09:03:24;;;;;;;22.50;13.85;;;-3275.80;82.50;;;;;;5095181;28;20486;-45
2021/12/27 09:05:49;;;;;;;24.30;12.20;;;-3275.80;82.10;;;;;;5111758;27;20114;-45
2021/12/27 09:08:16;;;;;;;20.38;13.40;;;-3275.80;82.30;;;;;;5085407;28;20070;-49
2021/12/27 09:10:43;;;;;;;20.83;12.88;;;-3275.80;82.30;;;;;;5093187;28;20028;-45
2021/12/27 09:13:16;;;;;;;22.35;13.32;;;-3275.90;82.20;;;;;;5110588;28;20031;-50
2021/12/27 09:15:43;;;;;;;25.90;14.25;;;-3276.00;82.20;;;;;;5112606;28;20084;-45
2021/12/27 09:18:09;;;;;;;17.75;12.07;;;-3275.90;82.00;;;;;;5078356;28;20059;-49
2021/12/27 09:20:35;;;;;;;21.17;13.10;;;-3276.00;82.00;;;;;;5113038;28;20115;-47
2021/12/27 09:23:02;;;;;;;21.70;12.85;;;-3275.90;82.00;;;;;;5109392;28;20114;-48
2021/12/27 09:25:31;;;;;;;23.63;14.73;;;-3276.00;81.90;;;;;;5070803;28;20075;-46
2021/12/27 09:28:00;;;;;;;22.77;14.68;;;-3276.00;82.20;;;;;;5093190;28;20035;-47
2021/12/27 09:30:27;;;;;;;22.20;13.45;;;-3276.00;82.10;;;;;;5112917;28;20061;-47
2021/12/27 09:32:57;;;;;;;20.60;13.90;;;-3276.10;82.20;;;;;;5094437;28;20074;-47
2021/12/27 09:35:23;;;;;;;26.13;15.55;;;-3276.20;82.40;;;;;;5112368;28;20809;-45
2021/12/27 09:37:49;;;;;;;24.73;15.80;;;-3276.30;82.20;;;;;;5110346;28;20035;-48
2021/12/27 09:40:16;;;;;;;25.42;14.20;;;-3276.30;82.30;;;;;;5095352;28;20352;-49
2021/12/27 09:42:44;;;;;;;22.70;13.80;;;-3276.40;82.00;;;;;;5090434;28;20138;-47
2021/12/27 09:45:11;;;;;;;20.00;13.07;;;-3276.40;81.90;;;;;;5093065;28;20123;-46
2021/12/27 09:47:38;;;;;;;25.50;14.85;;;-3276.40;82.30;;;;;;5092114;28;20107;-48
2021/12/27 09:50:07;;;;;;;22.77;14.45;;;-3276.40;82.10;;;;;;5092582;28;20024;-46
2021/12/27 09:52:34;;;;;;;22.92;15.13;;;-3276.50;82.10;;;;;;5090548;28;20077;-47
2021/12/27 09:55:03;;;;;;;22.98;14.20;;;-3276.50;82.10;;;;;;5091590;28;20123;-45
2021/12/27 09:57:33;;;;;;;22.73;13.82;;;-3276.50;82.10;;;;;;5070987;28;20031;-47
2021/12/27 09:59:59;;;;;;;24.58;14.32;;;-3276.60;82.10;;;;;;5084468;28;20036;-48
2021/12/27 10:02:26;;;;;;;30.42;16.38;;;-3276.60;82.10;;;;;;5091785;28;20024;-44
2021/12/27 10:04:53;;;;;;;23.50;14.05;;;-3276.60;82.30;;;;;;5073928;28;21623;-45
2021/12/27 10:07:24;;;;;;;26.95;15.10;;;-3276.70;82.30;;;;;;5090326;28;20024;-49
2021/12/27 10:09:59;;;;;;;27.92;17.00;;;0.00;82.30;;;;;;5088757;28;20036;-47
2021/12/27 10:12:27;;;;;;;20.90;14.02;;;0.00;82.30;;;;;;5054011;28;20333;-45
2021/12/27 10:15:03;;;;;;;30.98;16.80;;;0.00;82.30;;;;;;5090667;28;20028;-46
2021/12/27 10:17:34;;;;;;;26.50;15.18;;;0.00;82.40;;;;;;5072314;28;20028;-44
2021/12/27 10:20:15;;;;;;;24.30;15.43;;;0.20;82.30;;;;;;5089688;28;20118;-48
2021/12/27 10:22:48;;;;;;;25.00;15.75;;;0.20;82.10;;;;;;5093232;28;20035;-46
2021/12/27 10:25:23;;;;;;;25.40;15.77;;;0.20;81.90;;;;;;5096226;28;20023;-46
2021/12/27 10:27:55;;;;;;;25.35;15.73;;;0.30;81.60;;;;;;5077180;28;20035;-45
2021/12/27 10:30:24;;;;;;;24.88;17.05;;;0.30;81.60;;;;;;5078282;28;20020;-49
2021/12/27 10:33:10;;;;;;;22.50;14.73;;;0.20;81.80;;;;;;5093455;28;20020;-49
2021/12/27 10:35:42;;;;;;;25.88;15.70;;;0.20;81.90;;;;;;5093596;28;20036;-47
2021/12/27 10:38:24;;;;;;;23.98;16.45;;;0.10;82.10;;;;;;5091361;28;20467;-45
2021/12/27 10:40:55;;;;;;;30.23;18.73;;;0.20;82.20;;;;;;5093622;28;20085;-46
2021/12/27 10:43:40;;;;;;;24.92;14.65;;;0.20;82.30;;;;;;5088631;28;20036;-46
2021/12/27 10:46:24;;;;;;;26.00;14.98;;;0.20;82.50;;;;;;5083096;28;20024;-46
2021/12/27 10:48:58;;;;;;;30.90;17.15;;;0.30;82.50;;;;;;5095258;28;20048;-48
2021/12/27 10:51:26;;;;;;;27.17;17.92;;;0.30;82.60;;;;;;5096531;28;20035;-47
2021/12/27 10:53:58;;;;;;;28.20;17.02;;;0.20;82.50;;;;;;5087717;28;20021;-44
2021/12/27 10:56:50;;;;;;;33.53;19.35;;;0.30;82.90;;;;;;5076728;28;20028;-45
2021/12/27 10:59:19;;;;;;;31.50;17.17;;;0.30;82.90;;;;;;5092237;28;20472;-43
2021/12/27 11:01:47;;;;;;;28.88;17.95;;;0.30;83.10;;;;;;5083714;28;20051;-46
2021/12/27 11:04:18;;;;;;;29.73;17.25;;;0.30;83.20;;;;;;5095610;28;20028;-49
2021/12/27 11:06:45;;;;;;;27.13;16.55;;;0.30;83.10;;;;;;5095536;28;20081;-43
2021/12/27 11:09:14;;;;;;;33.58;16.30;;;0.20;83.30;;;;;;5085541;28;20043;-45
2021/12/27 11:11:42;;;;;;;35.53;18.23;;;0.20;83.40;;;;;;5091978;28;20406;-46
2021/12/27 11:14:09;;;;;;;32.00;19.42;;;0.20;83.50;;;;;;5095078;28;20028;-46
2021/12/27 11:16:36;;;;;;;30.60;19.75;;;0.20;83.70;;;;;;5088862;28;20024;-49
2021/12/27 11:19:03;;;;;;;29.00;18.23;;;0.20;83.90;;;;;;5077591;28;20085;-48
2021/12/27 11:21:44;;;;;;;25.65;15.70;;;0.20;83.80;;;;;;5095067;28;20055;-46
2021/12/27 11:24:11;;;;;;;25.85;15.98;;;0.30;83.90;;;;;;5074545;28;20031;-49
2021/12/27 11:26:40;;;;;;;30.20;17.35;;;0.40;83.80;;;;;;5095339;28;20441;-43
2021/12/27 11:29:22;;;;;;;28.77;16.23;;;0.40;83.60;;;;;;5095328;28;20456;-46
2021/12/27 11:31:55;;;;;;;32.55;19.35;;;0.40;83.60;;;;;;5079870;28;20462;-45
2021/12/27 11:34:23;;;;;;;32.10;19.50;;;0.40;83.70;;;;;;5069653;28;20464;-47
2021/12/27 11:36:58;;;;;;;34.42;18.80;;;0.40;83.80;;;;;;5070523;28;20078;-45
2021/12/27 11:39:38;;;;;;;36.33;18.20;;;0.40;83.70;;;;;;5074586;28;20105;-47
2021/12/27 11:42:11;;;;;;;33.05;17.40;;;0.40;83.80;;;;;;5084817;28;20361;-44
2021/12/27 11:44:49;;;;;;;30.35;18.77;;;0.40;83.90;;;;;;5113954;28;20074;-45
2021/12/27 11:47:34;;;;;;;33.45;19.17;;;0.40;84.10;;;;;;5113657;27;20126;-44
2021/12/27 11:50:07;;;;;;;32.55;18.15;;;0.50;84.40;;;;;;5129601;27;20401;-45
2021/12/27 11:52:51;;;;;;;33.95;19.38;;;0.50;84.10;;;;;;5127352;27;20030;-45
2021/12/27 11:55:21;;;;;;;29.73;19.42;;;0.60;84.50;;;;;;5115109;28;20015;-43
2021/12/27 11:58:06;;;;;;;34.28;21.13;;;0.50;84.30;;;;;;5106804;28;20039;-45
2021/12/27 12:00:50;;;;;;;38.65;21.00;;;0.50;84.70;;;;;;5101007;28;20372;-48
2021/12/27 12:03:20;;;;;;;32.10;19.10;;;0.60;84.70;;;;;;5097258;28;20486;-44
2021/12/27 12:05:50;;;;;;;32.65;19.95;;;0.60;84.60;;;;;;5112894;28;20112;-44
2021/12/27 12:08:41;;;;;;;32.83;20.58;;;0.60;84.80;;;;;;5110737;27;20023;-46
2021/12/27 12:11:10;;;;;;;34.22;19.10;;;0.60;84.80;;;;;;5116462;27;20031;-46
2021/12/27 12:13:54;;;;;;;39.15;20.40;;;0.70;84.70;;;;;;5114855;27;20499;-48
2021/12/27 12:16:25;;;;;;;32.25;20.67;;;0.80;84.30;;;;;;5113906;28;20081;-47
2021/12/27 12:18:54;;;;;;;37.53;20.00;;;0.80;84.60;;;;;;5095767;28;20023;-47
2021/12/27 12:21:39;;;;;;;34.75;19.10;;;0.80;84.30;;;;;;5108245;28;20039;-44
2021/12/27 12:24:10;;;;;;;30.63;19.48;;;0.70;84.10;;;;;;5108956;28;20040;-46
2021/12/27 12:27:00;;;;;;;32.10;19.42;;;0.70;84.30;;;;;;5113824;28;20099;-46
2021/12/27 12:29:47;;;;;;;29.55;19.25;;;0.80;84.40;;;;;;5114715;28;20462;-47